sensor_id;sensor_type;location;lat;lon;timestamp;P1;durP1;ratioP1;P2;durP2;ratioP2
15342;SDS011;7771;48.478;8.936;2023-02-28T00:00:08;3.60;;;3.00;;
15342;SDS011;7771;48.478;8.936;2023-02-28T00:02:37;3.53;;;2.80;;
15342;SDS011;7771;48.478;8.936;2023-02-28T00:05:04;3.70;;;2.70;;
15342;SDS011;7771;48.478;8.936;2023-02-28T00:07:31;4.33;;;3.10;;
15342;SDS011;7771;48.478;8.936;2023-02-28T00:09:59;4.07;;;3.10;;
15342;SDS011;7771;48.478;8.936;2023-02-28T00:12:28;3.53;;;2.97;;
15342;SDS011;7771;48.478;8.936;2023-02-28T00:14:55;3.03;;;2.73;;
15342;SDS011;7771;48.478;8.936;2023-02-28T00:17:21;3.70;;;3.10;;
15342;SDS011;7771;48.478;8.936;2023-02-28T00:19:48;3.93;;;3.13;;
15342;SDS011;7771;48.478;8.936;2023-02-28T00:22:15;3.83;;;3.03;;
15342;SDS011;7771;48.478;8.936;2023-02-28T00:24:42;4.57;;;3.00;;
15342;SDS011;7771;48.478;8.936;2023-02-28T00:27:09;3.80;;;2.60;;
15342;SDS011;7771;48.478;8.936;2023-02-28T00:29:36;4.13;;;3.10;;
15342;SDS011;7771;48.478;8.936;2023-02-28T00:32:02;4.80;;;3.43;;
15342;SDS011;7771;48.478;8.936;2023-02-28T00:34:30;4.00;;;2.73;;
15342;SDS011;7771;48.478;8.936;2023-02-28T00:36:57;4.40;;;3.13;;
15342;SDS011;7771;48.478;8.936;2023-02-28T00:39:24;5.43;;;3.10;;
15342;SDS011;7771;48.478;8.936;2023-02-28T00:41:51;3.27;;;2.80;;
15342;SDS011;7771;48.478;8.936;2023-02-28T00:44:17;2.90;;;2.50;;
15342;SDS011;7771;48.478;8.936;2023-02-28T00:46:44;4.13;;;2.90;;
15342;SDS011;7771;48.478;8.936;2023-02-28T00:49:11;3.50;;;2.60;;
15342;SDS011;7771;48.478;8.936;2023-02-28T00:51:38;3.87;;;2.70;;
15342;SDS011;7771;48.478;8.936;2023-02-28T00:54:05;7.47;;;2.70;;
15342;SDS011;7771;48.478;8.936;2023-02-28T00:56:32;3.53;;;2.67;;
15342;SDS011;7771;48.478;8.936;2023-02-28T00:58:59;6.07;;;3.10;;
15342;SDS011;7771;48.478;8.936;2023-02-28T01:01:25;5.03;;;3.10;;
15342;SDS011;7771;48.478;8.936;2023-02-28T01:03:53;4.17;;;3.20;;
15342;SDS011;7771;48.478;8.936;2023-02-28T01:06:20;3.93;;;3.20;;
15342;SDS011;7771;48.478;8.936;2023-02-28T01:08:48;4.63;;;3.00;;
15342;SDS011;7771;48.478;8.936;2023-02-28T01:11:15;3.30;;;3.00;;
15342;SDS011;7771;48.478;8.936;2023-02-28T01:13:43;4.03;;;2.90;;
15342;SDS011;7771;48.478;8.936;2023-02-28T01:16:09;4.10;;;2.93;;
15342;SDS011;7771;48.478;8.936;2023-02-28T01:18:36;4.90;;;3.43;;
15342;SDS011;7771;48.478;8.936;2023-02-28T01:21:07;5.13;;;3.13;;
15342;SDS011;7771;48.478;8.936;2023-02-28T01:23:33;3.87;;;2.80;;
15342;SDS011;7771;48.478;8.936;2023-02-28T01:26:05;5.77;;;3.00;;
15342;SDS011;7771;48.478;8.936;2023-02-28T01:28:31;5.67;;;3.07;;
15342;SDS011;7771;48.478;8.936;2023-02-28T01:30:58;4.00;;;3.10;;
15342;SDS011;7771;48.478;8.936;2023-02-28T01:33:26;5.63;;;3.37;;
15342;SDS011;7771;48.478;8.936;2023-02-28T01:36:29;4.30;;;3.10;;
15342;SDS011;7771;48.478;8.936;2023-02-28T01:38:40;4.47;;;3.17;;
15342;SDS011;7771;48.478;8.936;2023-02-28T01:41:08;3.47;;;2.63;;
15342;SDS011;7771;48.478;8.936;2023-02-28T01:46:24;3.93;;;3.00;;
15342;SDS011;7771;48.478;8.936;2023-02-28T01:48:55;4.93;;;3.03;;
15342;SDS011;7771;48.478;8.936;2023-02-28T01:51:26;5.73;;;3.23;;
15342;SDS011;7771;48.478;8.936;2023-02-28T01:53:51;4.37;;;3.20;;
15342;SDS011;7771;48.478;8.936;2023-02-28T01:56:17;2.83;;;2.50;;
15342;SDS011;7771;48.478;8.936;2023-02-28T01:58:44;4.07;;;3.03;;
15342;SDS011;7771;48.478;8.936;2023-02-28T02:01:11;5.77;;;3.30;;
15342;SDS011;7771;48.478;8.936;2023-02-28T02:03:37;4.20;;;3.00;;
15342;SDS011;7771;48.478;8.936;2023-02-28T02:06:04;5.00;;;2.83;;
15342;SDS011;7771;48.478;8.936;2023-02-28T02:08:32;6.33;;;3.10;;
15342;SDS011;7771;48.478;8.936;2023-02-28T02:11:00;4.90;;;3.13;;
15342;SDS011;7771;48.478;8.936;2023-02-28T02:13:34;3.43;;;3.07;;
15342;SDS011;7771;48.478;8.936;2023-02-28T02:24:13;6.87;;;3.70;;
15342;SDS011;7771;48.478;8.936;2023-02-28T02:26:52;5.13;;;3.40;;
15342;SDS011;7771;48.478;8.936;2023-02-28T02:29:27;5.67;;;3.43;;
15342;SDS011;7771;48.478;8.936;2023-02-28T02:31:57;5.63;;;3.10;;
15342;SDS011;7771;48.478;8.936;2023-02-28T02:35:02;5.47;;;3.20;;
15342;SDS011;7771;48.478;8.936;2023-02-28T02:37:23;4.57;;;3.13;;
15342;SDS011;7771;48.478;8.936;2023-02-28T02:40:11;4.93;;;3.10;;
15342;SDS011;7771;48.478;8.936;2023-02-28T02:45:40;4.07;;;2.83;;
15342;SDS011;7771;48.478;8.936;2023-02-28T02:48:11;5.17;;;3.10;;
15342;SDS011;7771;48.478;8.936;2023-02-28T02:50:41;5.73;;;3.53;;
15342;SDS011;7771;48.478;8.936;2023-02-28T02:53:06;7.07;;;3.90;;
15342;SDS011;7771;48.478;8.936;2023-02-28T02:55:34;4.87;;;3.43;;
15342;SDS011;7771;48.478;8.936;2023-02-28T02:58:02;4.87;;;3.20;;
15342;SDS011;7771;48.478;8.936;2023-02-28T03:00:31;4.57;;;2.73;;
15342;SDS011;7771;48.478;8.936;2023-02-28T03:02:57;6.03;;;3.17;;
15342;SDS011;7771;48.478;8.936;2023-02-28T03:05:26;4.50;;;2.90;;
15342;SDS011;7771;48.478;8.936;2023-02-28T03:07:52;5.53;;;3.47;;
15342;SDS011;7771;48.478;8.936;2023-02-28T03:13:03;5.47;;;3.37;;
15342;SDS011;7771;48.478;8.936;2023-02-28T03:15:32;7.90;;;4.00;;
15342;SDS011;7771;48.478;8.936;2023-02-28T03:18:01;3.90;;;3.30;;
15342;SDS011;7771;48.478;8.936;2023-02-28T03:20:37;5.97;;;3.20;;
15342;SDS011;7771;48.478;8.936;2023-02-28T03:26:07;6.60;;;3.93;;
15342;SDS011;7771;48.478;8.936;2023-02-28T03:28:43;5.67;;;3.23;;
15342;SDS011;7771;48.478;8.936;2023-02-28T03:31:12;6.00;;;3.70;;
15342;SDS011;7771;48.478;8.936;2023-02-28T03:33:38;5.20;;;3.70;;
15342;SDS011;7771;48.478;8.936;2023-02-28T03:36:08;5.23;;;3.63;;
15342;SDS011;7771;48.478;8.936;2023-02-28T03:38:42;4.43;;;3.87;;
15342;SDS011;7771;48.478;8.936;2023-02-28T03:41:10;7.07;;;3.93;;
15342;SDS011;7771;48.478;8.936;2023-02-28T03:43:50;4.70;;;3.50;;
15342;SDS011;7771;48.478;8.936;2023-02-28T03:46:18;6.20;;;3.93;;
15342;SDS011;7771;48.478;8.936;2023-02-28T03:48:44;5.20;;;3.30;;
15342;SDS011;7771;48.478;8.936;2023-02-28T03:51:12;6.63;;;4.37;;
15342;SDS011;7771;48.478;8.936;2023-02-28T03:53:38;7.13;;;4.80;;
15342;SDS011;7771;48.478;8.936;2023-02-28T03:56:06;6.57;;;3.40;;
15342;SDS011;7771;48.478;8.936;2023-02-28T03:58:37;5.73;;;4.07;;
15342;SDS011;7771;48.478;8.936;2023-02-28T04:01:07;6.43;;;3.50;;
15342;SDS011;7771;48.478;8.936;2023-02-28T04:03:31;4.63;;;3.43;;
15342;SDS011;7771;48.478;8.936;2023-02-28T04:05:58;7.53;;;4.30;;
15342;SDS011;7771;48.478;8.936;2023-02-28T04:08:24;6.60;;;4.03;;
15342;SDS011;7771;48.478;8.936;2023-02-28T04:10:57;5.67;;;4.50;;
15342;SDS011;7771;48.478;8.936;2023-02-28T04:13:22;6.60;;;4.50;;
15342;SDS011;7771;48.478;8.936;2023-02-28T04:15:50;7.27;;;4.20;;
15342;SDS011;7771;48.478;8.936;2023-02-28T04:18:19;6.03;;;3.90;;
15342;SDS011;7771;48.478;8.936;2023-02-28T04:20:46;6.23;;;4.57;;
15342;SDS011;7771;48.478;8.936;2023-02-28T04:23:12;6.13;;;4.37;;
15342;SDS011;7771;48.478;8.936;2023-02-28T04:25:39;6.13;;;4.13;;
15342;SDS011;7771;48.478;8.936;2023-02-28T04:28:06;6.20;;;3.77;;
15342;SDS011;7771;48.478;8.936;2023-02-28T04:30:32;4.97;;;3.43;;
15342;SDS011;7771;48.478;8.936;2023-02-28T04:33:00;8.60;;;4.40;;
15342;SDS011;7771;48.478;8.936;2023-02-28T04:35:27;7.73;;;4.20;;
15342;SDS011;7771;48.478;8.936;2023-02-28T04:37:54;4.77;;;3.70;;
15342;SDS011;7771;48.478;8.936;2023-02-28T04:40:21;6.57;;;3.90;;
15342;SDS011;7771;48.478;8.936;2023-02-28T04:42:48;5.77;;;4.40;;
15342;SDS011;7771;48.478;8.936;2023-02-28T04:45:14;6.13;;;4.57;;
15342;SDS011;7771;48.478;8.936;2023-02-28T04:47:41;6.10;;;3.73;;
15342;SDS011;7771;48.478;8.936;2023-02-28T04:50:08;6.40;;;4.37;;
15342;SDS011;7771;48.478;8.936;2023-02-28T04:52:35;6.80;;;3.17;;
15342;SDS011;7771;48.478;8.936;2023-02-28T04:55:01;5.67;;;4.23;;
15342;SDS011;7771;48.478;8.936;2023-02-28T04:57:29;5.97;;;3.90;;
15342;SDS011;7771;48.478;8.936;2023-02-28T04:59:57;6.70;;;4.60;;
15342;SDS011;7771;48.478;8.936;2023-02-28T05:02:24;5.20;;;4.70;;
15342;SDS011;7771;48.478;8.936;2023-02-28T05:04:50;7.63;;;4.30;;
15342;SDS011;7771;48.478;8.936;2023-02-28T05:07:17;5.90;;;3.93;;
15342;SDS011;7771;48.478;8.936;2023-02-28T05:09:44;9.17;;;4.97;;
15342;SDS011;7771;48.478;8.936;2023-02-28T05:12:10;7.97;;;4.63;;
15342;SDS011;7771;48.478;8.936;2023-02-28T05:14:39;7.43;;;4.63;;
15342;SDS011;7771;48.478;8.936;2023-02-28T05:17:06;7.57;;;4.40;;
15342;SDS011;7771;48.478;8.936;2023-02-28T05:19:32;6.90;;;4.73;;
15342;SDS011;7771;48.478;8.936;2023-02-28T05:22:00;8.50;;;4.47;;
15342;SDS011;7771;48.478;8.936;2023-02-28T05:24:26;6.30;;;4.30;;
15342;SDS011;7771;48.478;8.936;2023-02-28T05:26:53;6.00;;;4.73;;
15342;SDS011;7771;48.478;8.936;2023-02-28T05:29:20;5.90;;;4.70;;
15342;SDS011;7771;48.478;8.936;2023-02-28T05:31:48;6.93;;;4.50;;
15342;SDS011;7771;48.478;8.936;2023-02-28T05:34:16;6.93;;;4.70;;
15342;SDS011;7771;48.478;8.936;2023-02-28T05:36:43;6.67;;;4.70;;
15342;SDS011;7771;48.478;8.936;2023-02-28T05:39:09;7.63;;;4.90;;
15342;SDS011;7771;48.478;8.936;2023-02-28T05:41:37;6.33;;;4.97;;
15342;SDS011;7771;48.478;8.936;2023-02-28T05:44:03;5.80;;;4.70;;
15342;SDS011;7771;48.478;8.936;2023-02-28T05:46:31;7.03;;;4.97;;
15342;SDS011;7771;48.478;8.936;2023-02-28T05:48:58;6.27;;;4.03;;
15342;SDS011;7771;48.478;8.936;2023-02-28T05:51:25;6.40;;;5.23;;
15342;SDS011;7771;48.478;8.936;2023-02-28T05:53:53;7.07;;;5.23;;
15342;SDS011;7771;48.478;8.936;2023-02-28T05:56:21;6.60;;;5.17;;
15342;SDS011;7771;48.478;8.936;2023-02-28T05:58:49;6.10;;;4.50;;
15342;SDS011;7771;48.478;8.936;2023-02-28T06:01:20;8.90;;;4.97;;
15342;SDS011;7771;48.478;8.936;2023-02-28T06:03:46;5.80;;;5.17;;
15342;SDS011;7771;48.478;8.936;2023-02-28T06:06:13;8.13;;;5.20;;
15342;SDS011;7771;48.478;8.936;2023-02-28T06:08:40;8.10;;;6.03;;
15342;SDS011;7771;48.478;8.936;2023-02-28T06:11:08;9.30;;;6.03;;
15342;SDS011;7771;48.478;8.936;2023-02-28T06:13:34;6.80;;;5.70;;
15342;SDS011;7771;48.478;8.936;2023-02-28T06:16:02;9.23;;;6.07;;
15342;SDS011;7771;48.478;8.936;2023-02-28T06:18:30;8.77;;;5.93;;
15342;SDS011;7771;48.478;8.936;2023-02-28T06:20:58;8.70;;;5.00;;
15342;SDS011;7771;48.478;8.936;2023-02-28T06:23:25;10.27;;;5.57;;
15342;SDS011;7771;48.478;8.936;2023-02-28T06:25:53;7.83;;;5.10;;
15342;SDS011;7771;48.478;8.936;2023-02-28T06:28:20;8.63;;;5.73;;
15342;SDS011;7771;48.478;8.936;2023-02-28T06:30:49;9.33;;;5.47;;
15342;SDS011;7771;48.478;8.936;2023-02-28T06:33:15;8.23;;;5.77;;
15342;SDS011;7771;48.478;8.936;2023-02-28T06:35:44;9.40;;;6.30;;
15342;SDS011;7771;48.478;8.936;2023-02-28T06:38:10;7.60;;;5.63;;
15342;SDS011;7771;48.478;8.936;2023-02-28T06:40:37;7.40;;;5.57;;
15342;SDS011;7771;48.478;8.936;2023-02-28T06:43:03;9.13;;;5.63;;
15342;SDS011;7771;48.478;8.936;2023-02-28T06:45:32;8.67;;;6.00;;
15342;SDS011;7771;48.478;8.936;2023-02-28T06:47:59;8.43;;;6.43;;
15342;SDS011;7771;48.478;8.936;2023-02-28T06:50:27;7.47;;;6.33;;
15342;SDS011;7771;48.478;8.936;2023-02-28T06:52:54;11.53;;;7.93;;
15342;SDS011;7771;48.478;8.936;2023-02-28T06:55:21;14.40;;;7.60;;
15342;SDS011;7771;48.478;8.936;2023-02-28T06:57:48;13.20;;;7.00;;
15342;SDS011;7771;48.478;8.936;2023-02-28T07:00:16;10.47;;;6.67;;
15342;SDS011;7771;48.478;8.936;2023-02-28T07:02:44;8.73;;;6.97;;
15342;SDS011;7771;48.478;8.936;2023-02-28T07:05:10;9.50;;;6.80;;
15342;SDS011;7771;48.478;8.936;2023-02-28T07:07:39;8.00;;;5.80;;
15342;SDS011;7771;48.478;8.936;2023-02-28T07:10:06;11.97;;;7.60;;
15342;SDS011;7771;48.478;8.936;2023-02-28T07:12:33;12.73;;;6.67;;
15342;SDS011;7771;48.478;8.936;2023-02-28T07:15:01;11.60;;;6.80;;
15342;SDS011;7771;48.478;8.936;2023-02-28T07:17:28;10.63;;;7.17;;
15342;SDS011;7771;48.478;8.936;2023-02-28T07:19:55;9.67;;;6.90;;
15342;SDS011;7771;48.478;8.936;2023-02-28T07:22:22;8.97;;;6.40;;
15342;SDS011;7771;48.478;8.936;2023-02-28T07:24:50;12.73;;;7.23;;
15342;SDS011;7771;48.478;8.936;2023-02-28T07:27:17;11.10;;;7.00;;
15342;SDS011;7771;48.478;8.936;2023-02-28T07:29:46;10.33;;;6.60;;
15342;SDS011;7771;48.478;8.936;2023-02-28T07:32:13;9.00;;;5.93;;
15342;SDS011;7771;48.478;8.936;2023-02-28T07:34:40;10.03;;;6.40;;
15342;SDS011;7771;48.478;8.936;2023-02-28T07:37:08;13.20;;;7.03;;
15342;SDS011;7771;48.478;8.936;2023-02-28T07:39:35;10.87;;;7.50;;
15342;SDS011;7771;48.478;8.936;2023-02-28T07:42:05;10.37;;;7.33;;
15342;SDS011;7771;48.478;8.936;2023-02-28T07:44:32;11.53;;;7.27;;
15342;SDS011;7771;48.478;8.936;2023-02-28T07:46:59;12.03;;;7.10;;
15342;SDS011;7771;48.478;8.936;2023-02-28T07:49:26;9.93;;;7.27;;
15342;SDS011;7771;48.478;8.936;2023-02-28T07:51:53;10.03;;;6.90;;
15342;SDS011;7771;48.478;8.936;2023-02-28T07:54:20;12.33;;;7.87;;
15342;SDS011;7771;48.478;8.936;2023-02-28T07:56:47;11.43;;;7.67;;
15342;SDS011;7771;48.478;8.936;2023-02-28T07:59:15;10.73;;;7.40;;
15342;SDS011;7771;48.478;8.936;2023-02-28T08:01:42;14.67;;;8.40;;
15342;SDS011;7771;48.478;8.936;2023-02-28T08:04:08;12.77;;;7.83;;
15342;SDS011;7771;48.478;8.936;2023-02-28T08:06:35;12.57;;;7.40;;
15342;SDS011;7771;48.478;8.936;2023-02-28T08:09:02;10.53;;;6.67;;
15342;SDS011;7771;48.478;8.936;2023-02-28T08:11:30;12.73;;;7.67;;
15342;SDS011;7771;48.478;8.936;2023-02-28T08:13:57;9.10;;;7.13;;
15342;SDS011;7771;48.478;8.936;2023-02-28T08:16:23;14.53;;;8.30;;
15342;SDS011;7771;48.478;8.936;2023-02-28T08:18:52;12.27;;;8.00;;
15342;SDS011;7771;48.478;8.936;2023-02-28T08:21:19;9.17;;;6.80;;
15342;SDS011;7771;48.478;8.936;2023-02-28T08:23:47;10.57;;;7.50;;
15342;SDS011;7771;48.478;8.936;2023-02-28T08:26:13;10.60;;;7.80;;
15342;SDS011;7771;48.478;8.936;2023-02-28T08:28:40;10.97;;;8.27;;
15342;SDS011;7771;48.478;8.936;2023-02-28T08:31:08;11.87;;;8.20;;
15342;SDS011;7771;48.478;8.936;2023-02-28T08:33:35;13.90;;;8.50;;
15342;SDS011;7771;48.478;8.936;2023-02-28T08:36:01;11.17;;;7.27;;
15342;SDS011;7771;48.478;8.936;2023-02-28T08:38:28;10.97;;;7.83;;
15342;SDS011;7771;48.478;8.936;2023-02-28T08:40:57;9.70;;;7.23;;
15342;SDS011;7771;48.478;8.936;2023-02-28T08:43:23;12.37;;;8.37;;
15342;SDS011;7771;48.478;8.936;2023-02-28T08:45:52;12.63;;;8.13;;
15342;SDS011;7771;48.478;8.936;2023-02-28T08:48:19;9.33;;;7.57;;
15342;SDS011;7771;48.478;8.936;2023-02-28T08:51:03;10.43;;;8.30;;
15342;SDS011;7771;48.478;8.936;2023-02-28T08:53:28;9.23;;;7.40;;
15342;SDS011;7771;48.478;8.936;2023-02-28T08:55:56;15.17;;;8.83;;
15342;SDS011;7771;48.478;8.936;2023-02-28T08:58:24;15.50;;;9.63;;
15342;SDS011;7771;48.478;8.936;2023-02-28T09:00:51;14.17;;;9.23;;
15342;SDS011;7771;48.478;8.936;2023-02-28T09:03:20;10.93;;;8.30;;
15342;SDS011;7771;48.478;8.936;2023-02-28T09:05:52;14.07;;;9.67;;
15342;SDS011;7771;48.478;8.936;2023-02-28T09:08:21;14.13;;;9.37;;
15342;SDS011;7771;48.478;8.936;2023-02-28T09:10:49;14.27;;;9.60;;
15342;SDS011;7771;48.478;8.936;2023-02-28T09:13:16;16.27;;;9.63;;
15342;SDS011;7771;48.478;8.936;2023-02-28T09:15:43;15.03;;;9.87;;
15342;SDS011;7771;48.478;8.936;2023-02-28T09:18:11;14.53;;;10.37;;
15342;SDS011;7771;48.478;8.936;2023-02-28T09:20:38;18.23;;;11.07;;
15342;SDS011;7771;48.478;8.936;2023-02-28T09:23:05;15.10;;;10.20;;
15342;SDS011;7771;48.478;8.936;2023-02-28T09:25:31;15.33;;;10.90;;
15342;SDS011;7771;48.478;8.936;2023-02-28T09:27:58;13.17;;;9.63;;
15342;SDS011;7771;48.478;8.936;2023-02-28T09:30:25;15.27;;;9.37;;
15342;SDS011;7771;48.478;8.936;2023-02-28T09:32:52;15.70;;;9.80;;
15342;SDS011;7771;48.478;8.936;2023-02-28T09:35:20;12.20;;;9.47;;
15342;SDS011;7771;48.478;8.936;2023-02-28T09:37:47;13.97;;;9.67;;
15342;SDS011;7771;48.478;8.936;2023-02-28T09:40:14;12.87;;;8.93;;
15342;SDS011;7771;48.478;8.936;2023-02-28T09:42:41;15.60;;;9.97;;
15342;SDS011;7771;48.478;8.936;2023-02-28T09:45:18;10.97;;;8.77;;
15342;SDS011;7771;48.478;8.936;2023-02-28T09:48:02;14.10;;;10.17;;
15342;SDS011;7771;48.478;8.936;2023-02-28T09:50:30;16.43;;;10.07;;
15342;SDS011;7771;48.478;8.936;2023-02-28T09:52:55;14.50;;;9.93;;
15342;SDS011;7771;48.478;8.936;2023-02-28T09:55:27;12.30;;;8.93;;
15342;SDS011;7771;48.478;8.936;2023-02-28T09:57:52;13.83;;;9.43;;
15342;SDS011;7771;48.478;8.936;2023-02-28T10:00:21;16.73;;;12.00;;
15342;SDS011;7771;48.478;8.936;2023-02-28T10:02:51;13.93;;;10.87;;
15342;SDS011;7771;48.478;8.936;2023-02-28T10:05:23;17.20;;;12.30;;
15342;SDS011;7771;48.478;8.936;2023-02-28T10:07:59;14.07;;;9.93;;
15342;SDS011;7771;48.478;8.936;2023-02-28T10:10:26;13.50;;;9.77;;
15342;SDS011;7771;48.478;8.936;2023-02-28T10:12:53;12.90;;;9.50;;
15342;SDS011;7771;48.478;8.936;2023-02-28T10:15:19;13.07;;;9.27;;
15342;SDS011;7771;48.478;8.936;2023-02-28T10:17:47;14.43;;;9.40;;
15342;SDS011;7771;48.478;8.936;2023-02-28T10:20:14;12.53;;;9.50;;
15342;SDS011;7771;48.478;8.936;2023-02-28T10:22:44;13.23;;;9.20;;
15342;SDS011;7771;48.478;8.936;2023-02-28T10:25:19;12.97;;;9.57;;
15342;SDS011;7771;48.478;8.936;2023-02-28T10:27:47;14.90;;;9.23;;
15342;SDS011;7771;48.478;8.936;2023-02-28T10:30:14;12.47;;;8.63;;
15342;SDS011;7771;48.478;8.936;2023-02-28T10:32:49;11.37;;;8.87;;
15342;SDS011;7771;48.478;8.936;2023-02-28T10:35:16;14.30;;;10.53;;
15342;SDS011;7771;48.478;8.936;2023-02-28T10:37:43;13.43;;;9.70;;
15342;SDS011;7771;48.478;8.936;2023-02-28T10:43:01;12.30;;;9.57;;
15342;SDS011;7771;48.478;8.936;2023-02-28T10:45:27;14.00;;;10.77;;
15342;SDS011;7771;48.478;8.936;2023-02-28T10:47:55;14.57;;;9.43;;
15342;SDS011;7771;48.478;8.936;2023-02-28T10:50:58;12.17;;;8.60;;
15342;SDS011;7771;48.478;8.936;2023-02-28T10:53:47;16.23;;;10.43;;
15342;SDS011;7771;48.478;8.936;2023-02-28T10:55:58;13.10;;;9.77;;
15342;SDS011;7771;48.478;8.936;2023-02-28T11:01:38;14.17;;;9.50;;
15342;SDS011;7771;48.478;8.936;2023-02-28T11:06:44;15.50;;;11.90;;
15342;SDS011;7771;48.478;8.936;2023-02-28T11:09:17;15.97;;;11.27;;
15342;SDS011;7771;48.478;8.936;2023-02-28T11:11:42;15.30;;;9.23;;
15342;SDS011;7771;48.478;8.936;2023-02-28T11:16:52;13.53;;;9.00;;
15342;SDS011;7771;48.478;8.936;2023-02-28T11:19:22;13.47;;;9.53;;
15342;SDS011;7771;48.478;8.936;2023-02-28T11:21:55;13.73;;;9.63;;
15342;SDS011;7771;48.478;8.936;2023-02-28T11:24:29;17.37;;;12.97;;
15342;SDS011;7771;48.478;8.936;2023-02-28T11:26:56;17.73;;;13.67;;
15342;SDS011;7771;48.478;8.936;2023-02-28T11:29:24;14.40;;;11.40;;
15342;SDS011;7771;48.478;8.936;2023-02-28T11:34:28;11.47;;;9.37;;
15342;SDS011;7771;48.478;8.936;2023-02-28T11:36:56;10.77;;;8.73;;
15342;SDS011;7771;48.478;8.936;2023-02-28T11:39:23;11.07;;;8.77;;
15342;SDS011;7771;48.478;8.936;2023-02-28T11:44:58;13.17;;;9.10;;
15342;SDS011;7771;48.478;8.936;2023-02-28T11:47:37;16.43;;;10.50;;
15342;SDS011;7771;48.478;8.936;2023-02-28T11:50:14;12.63;;;9.57;;
15342;SDS011;7771;48.478;8.936;2023-02-28T11:52:45;13.03;;;8.40;;
15342;SDS011;7771;48.478;8.936;2023-02-28T11:55:28;13.13;;;9.67;;
15342;SDS011;7771;48.478;8.936;2023-02-28T11:58:14;12.07;;;9.47;;
15342;SDS011;7771;48.478;8.936;2023-02-28T12:00:53;12.27;;;9.47;;
15342;SDS011;7771;48.478;8.936;2023-02-28T12:03:17;13.27;;;8.90;;
15342;SDS011;7771;48.478;8.936;2023-02-28T12:05:49;16.37;;;10.87;;
15342;SDS011;7771;48.478;8.936;2023-02-28T12:08:24;15.60;;;10.60;;
15342;SDS011;7771;48.478;8.936;2023-02-28T12:10:58;14.33;;;10.53;;
15342;SDS011;7771;48.478;8.936;2023-02-28T12:13:26;16.57;;;10.37;;
15342;SDS011;7771;48.478;8.936;2023-02-28T12:16:12;13.30;;;9.80;;
15342;SDS011;7771;48.478;8.936;2023-02-28T12:21:21;12.50;;;9.50;;
15342;SDS011;7771;48.478;8.936;2023-02-28T12:26:30;14.43;;;9.17;;
15342;SDS011;7771;48.478;8.936;2023-02-28T12:29:14;12.90;;;9.47;;
15342;SDS011;7771;48.478;8.936;2023-02-28T12:31:40;11.70;;;9.07;;
15342;SDS011;7771;48.478;8.936;2023-02-28T12:34:07;15.10;;;9.60;;
15342;SDS011;7771;48.478;8.936;2023-02-28T12:36:33;11.70;;;9.33;;
15342;SDS011;7771;48.478;8.936;2023-02-28T12:39:02;14.17;;;9.37;;
15342;SDS011;7771;48.478;8.936;2023-02-28T12:41:37;11.67;;;8.63;;
15342;SDS011;7771;48.478;8.936;2023-02-28T12:44:09;13.37;;;10.27;;
15342;SDS011;7771;48.478;8.936;2023-02-28T12:46:36;11.07;;;9.17;;
15342;SDS011;7771;48.478;8.936;2023-02-28T12:49:19;12.43;;;9.60;;
15342;SDS011;7771;48.478;8.936;2023-02-28T12:51:48;13.07;;;8.93;;
15342;SDS011;7771;48.478;8.936;2023-02-28T12:54:18;10.57;;;8.97;;
15342;SDS011;7771;48.478;8.936;2023-02-28T12:56:48;13.73;;;9.67;;
15342;SDS011;7771;48.478;8.936;2023-02-28T12:59:17;14.00;;;9.37;;
15342;SDS011;7771;48.478;8.936;2023-02-28T13:01:52;11.83;;;9.60;;
15342;SDS011;7771;48.478;8.936;2023-02-28T13:04:40;12.10;;;9.57;;
15342;SDS011;7771;48.478;8.936;2023-02-28T13:09:44;14.73;;;9.73;;
15342;SDS011;7771;48.478;8.936;2023-02-28T13:12:13;12.10;;;9.30;;
15342;SDS011;7771;48.478;8.936;2023-02-28T13:14:40;14.27;;;9.57;;
15342;SDS011;7771;48.478;8.936;2023-02-28T13:17:11;13.30;;;10.07;;
15342;SDS011;7771;48.478;8.936;2023-02-28T13:19:41;12.53;;;9.70;;
15342;SDS011;7771;48.478;8.936;2023-02-28T13:24:43;15.10;;;10.07;;
15342;SDS011;7771;48.478;8.936;2023-02-28T13:27:19;12.00;;;9.83;;
15342;SDS011;7771;48.478;8.936;2023-02-28T13:29:40;12.47;;;10.03;;
15342;SDS011;7771;48.478;8.936;2023-02-28T13:35:13;10.80;;;9.30;;
15342;SDS011;7771;48.478;8.936;2023-02-28T13:37:42;11.53;;;9.73;;
15342;SDS011;7771;48.478;8.936;2023-02-28T13:40:26;14.27;;;10.23;;
15342;SDS011;7771;48.478;8.936;2023-02-28T13:42:54;14.17;;;10.13;;
15342;SDS011;7771;48.478;8.936;2023-02-28T13:45:24;11.83;;;8.90;;
15342;SDS011;7771;48.478;8.936;2023-02-28T13:47:51;15.63;;;10.67;;
15342;SDS011;7771;48.478;8.936;2023-02-28T13:50:29;12.57;;;10.03;;
15342;SDS011;7771;48.478;8.936;2023-02-28T13:53:27;13.47;;;10.23;;
15342;SDS011;7771;48.478;8.936;2023-02-28T13:58:53;12.73;;;10.03;;
15342;SDS011;7771;48.478;8.936;2023-02-28T14:01:42;11.57;;;9.27;;
15342;SDS011;7771;48.478;8.936;2023-02-28T14:06:51;12.27;;;9.67;;
15342;SDS011;7771;48.478;8.936;2023-02-28T14:09:23;12.30;;;9.93;;
15342;SDS011;7771;48.478;8.936;2023-02-28T14:11:52;14.17;;;10.30;;
15342;SDS011;7771;48.478;8.936;2023-02-28T14:14:55;11.80;;;9.37;;
15342;SDS011;7771;48.478;8.936;2023-02-28T14:17:05;12.10;;;9.30;;
15342;SDS011;7771;48.478;8.936;2023-02-28T14:19:32;12.40;;;10.17;;
15342;SDS011;7771;48.478;8.936;2023-02-28T14:22:03;15.93;;;10.53;;
15342;SDS011;7771;48.478;8.936;2023-02-28T14:24:34;13.50;;;9.50;;
15342;SDS011;7771;48.478;8.936;2023-02-28T14:30:57;15.77;;;9.83;;
15342;SDS011;7771;48.478;8.936;2023-02-28T14:37:48;13.60;;;9.53;;
15342;SDS011;7771;48.478;8.936;2023-02-28T14:40:16;13.93;;;9.33;;
15342;SDS011;7771;48.478;8.936;2023-02-28T14:42:46;13.00;;;10.17;;
15342;SDS011;7771;48.478;8.936;2023-02-28T14:47:44;14.57;;;10.50;;
15342;SDS011;7771;48.478;8.936;2023-02-28T14:50:18;12.20;;;9.67;;
15342;SDS011;7771;48.478;8.936;2023-02-28T14:52:44;12.07;;;9.57;;
15342;SDS011;7771;48.478;8.936;2023-02-28T14:55:17;12.60;;;9.03;;
15342;SDS011;7771;48.478;8.936;2023-02-28T15:00:20;15.23;;;10.90;;
15342;SDS011;7771;48.478;8.936;2023-02-28T15:02:49;14.13;;;10.23;;
15342;SDS011;7771;48.478;8.936;2023-02-28T15:05:19;13.17;;;9.80;;
15342;SDS011;7771;48.478;8.936;2023-02-28T15:07:44;11.90;;;8.80;;
15342;SDS011;7771;48.478;8.936;2023-02-28T15:10:15;16.43;;;9.43;;
15342;SDS011;7771;48.478;8.936;2023-02-28T15:12:53;13.47;;;9.87;;
15342;SDS011;7771;48.478;8.936;2023-02-28T15:15:18;13.03;;;9.97;;
15342;SDS011;7771;48.478;8.936;2023-02-28T15:17:46;15.27;;;9.50;;
15342;SDS011;7771;48.478;8.936;2023-02-28T15:20:13;13.50;;;10.23;;
15342;SDS011;7771;48.478;8.936;2023-02-28T15:22:39;13.87;;;9.60;;
15342;SDS011;7771;48.478;8.936;2023-02-28T15:25:06;14.20;;;8.83;;
15342;SDS011;7771;48.478;8.936;2023-02-28T15:27:33;12.87;;;9.93;;
15342;SDS011;7771;48.478;8.936;2023-02-28T15:30:04;13.00;;;9.80;;
15342;SDS011;7771;48.478;8.936;2023-02-28T15:32:32;13.27;;;9.30;;
15342;SDS011;7771;48.478;8.936;2023-02-28T15:34:59;12.53;;;9.63;;
15342;SDS011;7771;48.478;8.936;2023-02-28T15:37:28;14.10;;;9.37;;
15342;SDS011;7771;48.478;8.936;2023-02-28T15:39:54;13.27;;;9.93;;
15342;SDS011;7771;48.478;8.936;2023-02-28T15:42:21;13.73;;;10.53;;
15342;SDS011;7771;48.478;8.936;2023-02-28T15:44:47;16.90;;;10.33;;
15342;SDS011;7771;48.478;8.936;2023-02-28T15:47:16;17.97;;;10.13;;
15342;SDS011;7771;48.478;8.936;2023-02-28T15:49:45;13.93;;;9.60;;
15342;SDS011;7771;48.478;8.936;2023-02-28T15:52:17;15.80;;;10.93;;
15342;SDS011;7771;48.478;8.936;2023-02-28T15:54:43;15.17;;;9.83;;
15342;SDS011;7771;48.478;8.936;2023-02-28T15:57:13;16.23;;;10.73;;
15342;SDS011;7771;48.478;8.936;2023-02-28T15:59:42;15.00;;;9.80;;
15342;SDS011;7771;48.478;8.936;2023-02-28T16:02:17;15.03;;;10.20;;
15342;SDS011;7771;48.478;8.936;2023-02-28T16:07:20;15.77;;;9.97;;
15342;SDS011;7771;48.478;8.936;2023-02-28T16:09:47;10.80;;;8.60;;
15342;SDS011;7771;48.478;8.936;2023-02-28T16:12:14;15.80;;;9.33;;
15342;SDS011;7771;48.478;8.936;2023-02-28T16:14:41;12.57;;;9.53;;